Tiempo atmosférico en la estación meteorológica de Garrucha, Puerto, Almería (12 m.)



Fecha
DESCASC
Temp. máxima en grados centígrados (hora)
DESCASC
Temp. mínima en grados centígrados (hora)
DESCASC
Temp. media en grados centígrados
DESCASC
Racha de viento máxima en m/sg (hora)
DESCASC
Velocidad máxima media en intervalos de 10 minutos(hora)
DESCASC
Precipitaciones diarias en mm
DESCASC
Precipitaciones de 00:00 a 06:00 en mm
DESCASC
Precipitaciones de 06:00 a 12:00 en mm
DESCASC
Precipitaciones de 12:00 a 18:00 en mm
DESCASC
Precipitaciones de 18:00 a 24:00 en mm
DESCASC
16-04-2019 19.7 (18:10) 13 (08:20) 16.4 8.33 (20:00) 6.39 (20:00) 0 0 0 0 0
15-04-2019 19.7 (17:00) 14.3 (06:10) 17 6.39 (15:10) 5.28 (15:40) 0 0 0 0 0
14-04-2019 18.5 (19:20) 13.8 (00:00) 16.2 14.17 (16:20) 11.94 (16:10) 0 0 0 0 0
13-04-2019 21.2 (11:00) 13.4 (00:00) 17.3 15.56 (17:20) 12.22 (16:40) 0 0 0 0 0
12-04-2019 19.8 (11:20) 12.3 (00:00) 16 15.28 (16:50) 12.78 (18:20) 0 0 0 0 0
11-04-2019 19.5 (12:20) 12 (00:00) 15.8 17.78 (16:30) 13.61 (16:20) 1.2 0 0 1.2 0
10-04-2019 20.1 (17:20) 13.8 (00:00) 17 15 (12:40) 10 (08:50) 0 0 0 0 0
09-04-2019 21.3 (19:10) 14.9 (00:00) 18.1 12.5 (10:10) 9.17 (16:20) 0 0 0 0 0
08-04-2019 22.7 (18:00) 12.8 (00:00) 17.8 8.33 (14:00) 7.22 (14:00) 0 0 0 0 0
07-04-2019 21.1 (16:20) 10.8 (00:00) 16 16.94 (13:10) 10.83 (15:20) 0 0 0 0 0
06-04-2019 19.7 (11:30) 9.4 (00:00) 14.6 12.5 (13:50) 9.72 (13:50) 0.8 0 0 0.4 0.4
05-04-2019 20.2 (12:40) 10.4 (00:00) 15.3 19.72 (13:30) 13.89 (13:30) 1.2 0 0 1.2 0
04-04-2019 19.3 (11:50) 14 (00:00) 16.6 11.39 (05:30) 9.17 (05:30) 0 0 0 0 0
03-04-2019 24 (19:30) 11.9 (00:00) 17.9 15.83 (16:30) 11.39 (17:30) 0 0 0 0 0
02-04-2019 21.9 (19:40) 12.1 (00:00) 17 11.94 (18:00) 10.28 (18:00) 0 0 0 0 0
01-04-2019 22.5 (10:30) 13.1 (00:00) 17.8 11.67 (18:30) 9.17 (18:30) 0 0 0 0 0
31-03-2019 14.5 (00:00) 10.8 (00:00) 12.7 7.78 (05:20) 5 (03:50) 11.2 3.8 3.4 2.8 1.2
30-03-2019 17.9 (10:20) 9.6 (00:00) 13.8 11.67 (16:30) 10.28 (16:30) 0 0 0 0 0
29-03-2019 17.6 (11:30) 8.9 (00:00) 13.3 12.78 (18:30) 10.28 (15:10) 0 0 0 0 0
28-03-2019 19.2 (11:10) 8 (00:00) 13.6 10 (15:20) 8.61 (15:20) 0 0 0 0 0
27-03-2019 17.7 (12:50) 9.8 (00:00) 13.8 12.5 (15:30) 10.28 (18:30) 0 0 0 0 0
26-03-2019 18.3 (13:50) 10.4 (00:00) 14.3 14.44 (15:20) 10.83 (17:10) 0 0 0 0 0
25-03-2019 22.4 (12:10) 11.8 (00:00) 17.1 8.89 (14:40) 7.78 (14:10) 0 0 0 0 0
24-03-2019 21.1 (13:10) 10.6 (00:00) 15.9 8.06 (15:20) 6.94 (15:30) 0 0 0 0 0
23-03-2019 17.6 (11:40) 11.5 (00:00) 14.6 11.11 (12:00) 8.33 (12:00) 0.2 0 0.2 0 0
22-03-2019 18 (11:50) 8.4 (00:00) 13.2 10 (15:40) 8.61 (15:30) 0 0 0 0 0
21-03-2019 17.4 (11:30) 7.6 (00:00) 12.5 13.06 (18:40) 11.11 (18:50) 0 0 0 0 0
20-03-2019 18.7 (11:30) 9.8 (00:00) 14.3 12.5 (18:00) 10.56 (18:00) 0 0 0 0 0
19-03-2019 18.2 (13:10) 12.5 (00:00) 15.4 8.33 (15:20) 7.5 (15:20) 0 0 0 0 0

Gráficas

Temp. máximas Temp. mínimas Temp. medias Precipitaciones Rachas de viento máximas Velocidades máximas media en intervalos de 10 minutos

Datos horarios

Fecha y hora oficial Temperatura (ºC) Velocidad del viento (km/h) Dirección del viento Racha (km/h) Dirección de racha Precipitación (mm) Presión (hPa) Tendencia (hPa) Humedad (%)
2019-04-17 23:00:00 17.3 16 Norte 23 Norte 0 -- -- 77
2019-04-17 22:00:00 17.5 19 Norte 27 Norte 0 -- -- 87
2019-04-17 21:00:00 17.6 20 Nordeste 27 Nordeste 0 -- -- 90
2019-04-17 20:00:00 17.4 9 Norte 24 Nordeste 0 -- -- 90
2019-04-17 19:00:00 17.8 13 Norte 25 Nordeste 0 -- -- 89
2019-04-17 18:00:00 17.7 18 Nordeste 29 Nordeste 0 -- -- 90
2019-04-17 17:00:00 17.9 19 Nordeste 33 Nordeste 0 -- -- 87
2019-04-17 16:00:00 18 20 Nordeste 34 Este 0 -- -- 87
2019-04-17 15:00:00 18 28 Nordeste 33 Este 0 -- -- 85
2019-04-17 14:00:00 18.2 21 Nordeste 30 Nordeste 0 -- -- 80
2019-04-17 13:00:00 17.8 21 Nordeste 30 Nordeste 0 -- -- 80
2019-04-17 12:00:00 17.9 22 Nordeste 28 Nordeste 0 -- -- 79
2019-04-17 11:00:00 17.8 19 Nordeste 25 Nordeste 0 -- -- 79
2019-04-17 10:00:00 16.9 8 Norte 12 Norte 0 -- -- 81
2019-04-17 09:00:00 14.6 11 Noroeste 15 Noroeste 0 -- -- 92
2019-04-17 08:00:00 14 8 Noroeste 15 Noroeste 0 -- -- 95
2019-04-17 07:00:00 14 9 Noroeste 13 Noroeste 0 -- -- 95
2019-04-17 06:00:00 14 8 Noroeste 15 Noroeste 0 -- -- 95
2019-04-17 05:00:00 14.1 7 Noroeste 20 Noroeste 0 -- -- 93
2019-04-17 04:00:00 15.1 10 Norte 18 Norte 0 -- -- 90
2019-04-17 03:00:00 15.6 11 Norte 16 Norte 0 -- -- 89
2019-04-17 02:00:00 15.4 6 Noroeste 10 Noroeste 0 -- -- 95
2019-04-17 01:00:00 15.7 3 Noroeste 8 Noroeste 0 -- -- 97
2019-04-17 00:00:00 15.8 6 Noroeste 9 Norte 0 -- -- 97
2019-04-16 23:00:00 16.5 6 Norte 12 Nordeste 0 -- -- 97
2019-04-16 22:00:00 17 9 Nordeste 20 Nordeste 0 -- -- 99
2019-04-16 21:00:00 17.2 12 Nordeste 27 Nordeste 0 -- -- 99
2019-04-16 20:00:00 17.8 23 Nordeste 30 Nordeste 0 -- -- 96
2019-04-16 19:00:00 19.2 17 Nordeste 21 Nordeste 0 -- -- 77
2019-04-16 18:00:00 19.5 11 Este 13 Este 0 -- -- 88
2019-04-16 17:00:00 19 11 Sudeste 20 Sudeste 0 -- -- 91
2019-04-16 16:00:00 18.6 18 Sudeste 20 Sudeste 0 -- -- 91
2019-04-16 15:00:00 18.7 15 Sudeste 17 Sudeste 0 -- -- 88
2019-04-16 14:00:00 18.3 10 Sudeste 12 Sudeste 0 -- -- 97
2019-04-16 13:00:00 17.5 9 Sudeste 14 Sudeste 0 -- -- 100
2019-04-16 12:00:00 16.9 12 Sudeste 15 Sudeste 0 -- -- 100
2019-04-16 11:00:00 16.6 12 Sudeste 14 Este 0 -- -- 100
2019-04-16 10:00:00 16.8 10 Este 12 Este 0 -- -- 100
2019-04-16 09:00:00 15 3 Sudoeste 17 Oeste 0 -- -- 90
2019-04-16 08:00:00 13.9 7 Noroeste 9 Noroeste 0 -- -- 95
2019-04-16 07:00:00 14 3 Noroeste 9 Nordeste 0 -- -- 91
2019-04-16 06:00:00 14.3 5 Noroeste 17 Oeste 0 -- -- 87
2019-04-16 05:00:00 14.3 10 Oeste 17 Sudoeste 0 -- -- 89
2019-04-16 04:00:00 14 8 Sudoeste 16 Oeste 0 -- -- 100
2019-04-16 03:00:00 14.3 8 Noroeste 14 Oeste 0 -- -- 100
2019-04-16 02:00:00 14.7 9 Oeste 13 Oeste 0 -- -- 100
2019-04-16 01:00:00 15.4 6 Norte 11 Norte 0 -- -- 100
2019-04-16 00:00:00 15.8 2 Noroeste 10 Norte 0 -- -- 100
2019-04-15 23:00:00 16.3 5 Nordeste 12 Nordeste 0 -- -- 100
2019-04-15 22:00:00 16.6 10 Este 15 Nordeste 0 -- -- 100
2019-04-15 21:00:00 16.9 11 Nordeste 19 Nordeste 0 -- -- 100
2019-04-15 20:00:00 17.7 11 Nordeste 21 Este 0 -- -- 100
2019-04-15 19:00:00 18.7 14 Nordeste 18 Nordeste 0 -- -- 92
2019-04-15 18:00:00 19.2 14 Nordeste 22 Nordeste 0 -- -- 91
2019-04-15 17:00:00 19.7 10 Nordeste 17 Este 0 -- -- 89
2019-04-15 16:00:00 18.8 17 Este 23 Nordeste 0 -- -- 91
2019-04-15 15:00:00 18.5 15 Este 22 Nordeste 0 -- -- 90
2019-04-15 14:00:00 18 17 Este 22 Este 0 -- -- 98
2019-04-15 13:00:00 17.7 16 Este 19 Este 0 -- -- 93
2019-04-15 12:00:00 18.8 9 Nordeste 13 Nordeste 0 -- -- 82
2019-04-15 11:00:00 19.3 6 Nordeste 9 Nordeste 0 -- -- 67
2019-04-15 10:00:00 18 4 Noroeste 8 Noroeste 0 -- -- 60
2019-04-15 09:00:00 16.8 2 Oeste 6 Sudoeste 0 -- -- 62
2019-04-15 08:00:00 15.4 4 Sudoeste 6 Sudoeste 0 -- -- 73
2019-04-15 07:00:00 14.8 4 Oeste 11 Oeste 0 -- -- 72
2019-04-15 06:00:00 14.5 4 Noroeste 7 Oeste 0 -- -- 83
2019-04-15 05:00:00 14.6 6 Oeste 8 Oeste 0 -- -- 89
2019-04-15 04:00:00 14.7 4 Noroeste 7 Sur 0 -- -- 96
2019-04-15 03:00:00 16 5 Sur 6 Sur 0 -- -- 99
2019-04-15 02:00:00 15.7 5 Sur 5 Sur 0 -- -- 96
2019-04-15 01:00:00 16 0 Calma 4 Noroeste 0 -- -- 96
2019-04-15 00:00:00 16.1 3 Nordeste 5 Oeste 0 -- -- 93
2019-04-14 23:00:00 16.4 6 Noroeste 19 Norte 0 -- -- 93
2019-04-14 22:00:00 16.5 12 Norte 23 Nordeste 0 -- -- 97
2019-04-14 21:00:00 17 18 Nordeste 25 Nordeste 0 -- -- 92
2019-04-14 20:00:00 18 22 Sur 34 Sur 0 -- -- 84
2019-04-14 19:00:00 17.8 30 Sur 40 Sur 0 -- -- 88
2019-04-14 18:00:00 17.4 36 Sur 49 Sur 0 -- -- 89
2019-04-14 17:00:00 17.4 41 Sur 51 Sur 0 -- -- 87
2019-04-14 16:00:00 16.9 41 Sur 46 Sur 0 -- -- 93
2019-04-14 15:00:00 16.8 36 Sur 42 Sur 0 -- -- 97
2019-04-14 14:00:00 16.8 34 Sur 39 Sur 0 -- -- 97
2019-04-14 13:00:00 17.2 16 Sudeste 29 Sudeste 0 -- -- 91
2019-04-14 12:00:00 16.9 13 Sudeste 15 Sudeste 0 -- -- 81
2019-04-14 11:00:00 17 8 Sudeste 13 Sudeste 0 -- -- 69
2019-04-14 10:00:00 17.6 5 Sudeste 10 Oeste 0 -- -- 47
2019-04-14 09:00:00 17 5 Oeste 17 Oeste 0 -- -- 46
2019-04-14 08:00:00 15.8 10 Sudoeste 17 Oeste 0 -- -- 45
2019-04-14 07:00:00 15.3 7 Oeste 16 Oeste 0 -- -- 48
2019-04-14 06:00:00 15.9 8 Oeste 17 Sudoeste 0 -- -- 50
2019-04-14 05:00:00 14.7 8 Sudoeste 14 Sudoeste 0 -- -- 50
2019-04-14 04:00:00 15 0 Calma 5 Oeste 0 -- -- 58
2019-04-14 03:00:00 15.3 0 Calma 11 Noroeste 0 -- -- 52
2019-04-14 02:00:00 15.2 5 Noroeste 7 Noroeste 0 -- -- 53
2019-04-14 01:00:00 16.5 4 Norte 16 Noroeste 0 -- -- 56
2019-04-14 00:00:00 16.9 4 Norte 13 Oeste 0 -- -- 52
2019-04-13 23:00:00 19.4 11 Oeste 22 Sudoeste 0 -- -- 37
2019-04-13 22:00:00 19.4 6 Sur 15 Sur 0 -- -- 40
2019-04-13 21:00:00 19.5 17 Sur 44 Sur 0 -- -- 45
2019-04-13 20:00:00 20.7 26 Sur 48 Sur 0 -- -- 45
2019-04-13 19:00:00 19.5 36 Sudeste 49 Sur 0 -- -- 52
2019-04-13 18:00:00 17.9 38 Sur 56 Sur 0 -- -- 71
2019-04-13 17:00:00 18.1 39 Sudeste 55 Sudeste 0 -- -- 69
2019-04-13 16:00:00 17.1 32 Sudeste 42 Sur 0 -- -- 82
2019-04-13 15:00:00 17 34 Sur 38 Sur 0 -- -- 85
2019-04-13 14:00:00 17 28 Sur 36 Sur 0 -- -- 82
2019-04-13 13:00:00 16.6 26 Sudeste 32 Sudeste 0 -- -- 83
2019-04-13 12:00:00 16.5 18 Sudeste 22 Sudeste 0 -- -- 74
2019-04-13 11:00:00 21.2 13 Noroeste 23 Noroeste 0 -- -- 33
2019-04-13 10:00:00 18.9 11 Noroeste 21 Oeste 0 -- -- 39
2019-04-13 09:00:00 16.5 10 Oeste 21 Oeste 0 -- -- 42
2019-04-13 08:00:00 13.5 12 Oeste 17 Noroeste 0 -- -- 51
2019-04-13 07:00:00 14 14 Oeste 17 Noroeste 0 -- -- 51
2019-04-13 06:00:00 14.2 12 Oeste 17 Oeste 0 -- -- 51
2019-04-13 05:00:00 14.4 11 Oeste 20 Oeste 0 -- -- 51
2019-04-13 04:00:00 14.3 11 Oeste 17 Oeste 0 -- -- 54
2019-04-13 03:00:00 14.1 12 Noroeste 15 Noroeste 0 -- -- 58
2019-04-13 02:00:00 13.5 9 Noroeste 15 Oeste 0 -- -- 64
2019-04-13 01:00:00 13.6 12 Oeste 14 Oeste 0 -- -- 70
2019-04-13 00:00:00 14.9 8 Noroeste 14 Oeste 0 -- -- 72
2019-04-12 23:00:00 15.7 7 Noroeste 18 Norte 0 -- -- 77
2019-04-12 22:00:00 16.6 8 Noroeste 13 Norte 0 -- -- 73
2019-04-12 21:00:00 17.6 3 Nordeste 32 Sudeste 0 -- -- 57
2019-04-12 20:00:00 17.7 25 Sur 47 Sur 0 -- -- 65
2019-04-12 19:00:00 16.9 39 Sur 55 Sur 0 -- -- 69
2019-04-12 18:00:00 17 43 Sur 55 Sur 0 -- -- 67
2019-04-12 17:00:00 16.7 44 Sur 55 Sur 0 -- -- 69
2019-04-12 16:00:00 16.5 40 Sur 47 Sur 0 -- -- 77
2019-04-12 15:00:00 16.5 35 Sur 41 Sur 0 -- -- 75
2019-04-12 14:00:00 16.4 31 Sur 35 Sur 0 -- -- 72
2019-04-12 13:00:00 16.8 21 Sudeste 25 Sudeste 0 -- -- 66
2019-04-12 12:00:00 16.9 18 Sudeste 23 Este 0 -- -- 64
2019-04-12 11:00:00 19.3 7 Norte 14 Norte 0 -- -- 42
2019-04-12 10:00:00 16.6 5 Noroeste 15 Noroeste 0 -- -- 48
2019-04-12 09:00:00 13.5 8 Noroeste 11 Noroeste 0 -- -- 57
2019-04-12 08:00:00 12.4 5 Noroeste 10 Norte 0 -- -- 58
2019-04-12 07:00:00 12.8 3 Noroeste 14 Oeste 0 -- -- 55
2019-04-12 06:00:00 13.3 12 Oeste 18 Noroeste 0 -- -- 53
2019-04-12 05:00:00 13.7 10 Oeste 15 Noroeste 0 -- -- 52
2019-04-12 04:00:00 13.1 10 Oeste 17 Oeste 0 -- -- 53
2019-04-12 03:00:00 13.8 13 Oeste 17 Oeste 0 -- -- 50
2019-04-12 02:00:00 14.6 9 Noroeste 13 Oeste 0 -- -- 51
2019-04-12 01:00:00 17 9 Oeste 14 Oeste 0 -- -- 40
2019-04-12 00:00:00 16.3 8 Noroeste 13 Oeste 0 -- -- 52
2019-04-11 23:00:00 15.8 8 Oeste 15 Oeste 0 -- -- 65
2019-04-11 22:00:00 16.5 13 Sudoeste 21 Sudoeste 0 -- -- 59
2019-04-11 21:00:00 17 13 Sur 25 Sur 0 -- -- 59
2019-04-11 20:00:00 16.2 27 Sur 33 Sur 0 -- -- 89
2019-04-11 19:00:00 16.1 30 Sur 39 Sudeste 0 -- -- 83
2019-04-11 18:00:00 16.6 33 Sudeste 57 Este 1 -- -- 63
2019-04-11 17:00:00 16.7 45 Sur 64 Sur 0.2 -- -- 61
2019-04-11 16:00:00 16.2 47 Sur 60 Sur 0 -- -- 68
2019-04-11 15:00:00 15.7 42 Sur 49 Sur 0 -- -- 83
2019-04-11 14:00:00 15.9 35 Sur 41 Sur 0 -- -- 79
2019-04-11 13:00:00 16.1 28 Sudeste 44 Sur 0 -- -- 68
2019-04-11 12:00:00 19.3 21 Noroeste 35 Oeste 0 -- -- 35
2019-04-11 11:00:00 18.2 24 Noroeste 43 Noroeste 0 -- -- 41
2019-04-11 10:00:00 17 27 Noroeste 40 Oeste 0 -- -- 44
2019-04-11 09:00:00 14.6 18 Oeste 29 Oeste 0 -- -- 56
2019-04-11 08:00:00 12.6 20 Oeste 28 Oeste 0 -- -- 62
2019-04-11 07:00:00 12.2 13 Noroeste 21 Noroeste 0 -- -- 65
2019-04-11 06:00:00 13.3 11 Oeste 17 Oeste 0 -- -- 55
2019-04-11 05:00:00 14.7 13 Oeste 34 Oeste 0 -- -- 51
2019-04-11 04:00:00 14 14 Oeste 21 Oeste 0 -- -- 54
2019-04-11 03:00:00 14.2 12 Noroeste 32 Oeste 0 -- -- 55
2019-04-11 02:00:00 14.3 18 Oeste 35 Noroeste 0 -- -- 56
2019-04-11 01:00:00 14.1 16 Oeste 31 Sudoeste 0 -- -- 58
2019-04-11 00:00:00 14.3 18 Oeste 45 Oeste 0 -- -- 58
2019-04-10 23:00:00 15 23 Oeste 35 Noroeste 0 -- -- 55
2019-04-10 22:00:00 15.8 20 Norte 40 Norte 0 -- -- 51
2019-04-10 21:00:00 16 24 Nordeste 39 Nordeste 0 -- -- 68
2019-04-10 20:00:00 19.4 22 Noroeste 44 Oeste 0 -- -- 33
2019-04-10 19:00:00 19.5 29 Noroeste 46 Noroeste 0 -- -- 31
2019-04-10 18:00:00 19.9 29 Noroeste 48 Oeste 0 -- -- 31
2019-04-10 17:00:00 17.2 16 Sur 36 Sur 0 -- -- 42
2019-04-10 16:00:00 15.4 28 Sudeste 34 Sur 0 -- -- 78
2019-04-10 15:00:00 15.3 29 Sur 39 Sur 0 -- -- 79
2019-04-10 14:00:00 15.6 25 Sudeste 32 Sur 0 -- -- 78
2019-04-10 13:00:00 16.9 11 Sudeste 54 Sudoeste 0 -- -- 68
2019-04-10 12:00:00 18 28 Noroeste 51 Noroeste 0 -- -- 42
2019-04-10 11:00:00 17.3 29 Noroeste 47 Noroeste 0 -- -- 43
2019-04-10 10:00:00 16.8 27 Noroeste 49 Noroeste 0 -- -- 43
2019-04-10 09:00:00 15.7 33 Noroeste 50 Noroeste 0 -- -- 51
2019-04-10 08:00:00 15.2 26 Oeste 40 Oeste 0 -- -- 50
2019-04-10 07:00:00 15.5 15 Oeste 33 Sudoeste 0 -- -- 51
2019-04-10 06:00:00 15.6 23 Sudoeste 32 Sudoeste 0 -- -- 51
2019-04-10 05:00:00 15.8 17 Oeste 32 Oeste 0 -- -- 51
2019-04-10 04:00:00 15.7 17 Oeste 27 Oeste 0 -- -- 48
2019-04-10 03:00:00 15.9 10 Oeste 25 Noroeste 0 -- -- 51
2019-04-10 02:00:00 16.5 15 Noroeste 34 Oeste 0 -- -- 49
2019-04-10 01:00:00 16.5 15 Noroeste 29 Oeste 0 -- -- 51
2019-04-10 00:00:00 16.4 8 Noroeste 16 Noroeste 0 -- -- 47
2019-04-09 23:00:00 16.7 4 Sudoeste 31 Noroeste 0 -- -- 49
2019-04-09 22:00:00 18.3 22 Noroeste 36 Noroeste 0 -- -- 41
2019-04-09 21:00:00 18.9 14 Noroeste 45 Oeste 0 -- -- 39
2019-04-09 20:00:00 20.5 25 Noroeste 41 Oeste 0 -- -- 32
2019-04-09 19:00:00 18.9 18 Sudeste 37 Sur 0 -- -- 48
2019-04-09 18:00:00 20.3 16 Sur 30 Sur 0 -- -- 48
2019-04-09 17:00:00 17.3 21 Sur 38 Sur 0 -- -- 63
2019-04-09 16:00:00 16.4 30 Sudeste 37 Sur 0 -- -- 66
2019-04-09 15:00:00 16 32 Sur 36 Sur 0 -- -- 68
2019-04-09 14:00:00 16 28 Sur 32 Sudeste 0 -- -- 73
2019-04-09 13:00:00 15.7 24 Sur 32 Sudeste 0 -- -- 76
2019-04-09 12:00:00 16.3 15 Sudeste 36 Noroeste 0 -- -- 72
2019-04-09 11:00:00 17.5 26 Noroeste 45 Noroeste 0 -- -- 43
2019-04-09 10:00:00 16.7 25 Noroeste 40 Noroeste 0 -- -- 48
2019-04-09 09:00:00 15.8 23 Oeste 36 Oeste 0 -- -- 52
2019-04-09 08:00:00 15.4 16 Oeste 34 Oeste 0 -- -- 52
2019-04-09 07:00:00 15.4 19 Noroeste 36 Noroeste 0 -- -- 54
2019-04-09 06:00:00 15.6 16 Noroeste 34 Oeste 0 -- -- 54
2019-04-09 05:00:00 15.5 13 Oeste 19 Oeste 0 -- -- 55
2019-04-09 04:00:00 16 4 Noroeste 13 Oeste 0 -- -- 56
2019-04-09 03:00:00 16 0 Calma 12 Noroeste 0 -- -- 68
2019-04-09 02:00:00 17.1 10 Oeste 22 Sudoeste 0 -- -- 65
2019-04-09 01:00:00 17.7 11 Sudoeste 17 Oeste 0 -- -- 67
2019-04-09 00:00:00 17.6 2 Nordeste 13 Sur 0 -- -- 76
2019-04-08 23:00:00 18.9 6 Oeste 19 Sudoeste 0 -- -- 64
2019-04-08 22:00:00 18.8 14 Oeste 22 Oeste 0 -- -- 65
2019-04-08 21:00:00 19.5 12 Sudoeste 26 Oeste 0 -- -- 62
2019-04-08 20:00:00 21 15 Oeste 23 Sudoeste 0 -- -- 56
2019-04-08 19:00:00 22 14 Sudoeste 26 Sudoeste 0 -- -- 50
2019-04-08 18:00:00 22.7 15 Sudoeste 24 Sur 0 -- -- 46
2019-04-08 17:00:00 21.2 12 Sur 26 Sur 0 -- -- 51
2019-04-08 16:00:00 20.5 16 Sur 26 Sudeste 0 -- -- 58
2019-04-08 15:00:00 19.6 20 Sudeste 29 Sudeste 0 -- -- 60
2019-04-08 14:00:00 17.1 26 Sudeste 30 Sudeste 0 -- -- 81
2019-04-08 13:00:00 17.4 15 Sudeste 19 Sur 0 -- -- 74
2019-04-08 12:00:00 16.3 9 Sudeste 12 Sudeste 0 -- -- 78
2019-04-08 11:00:00 19.2 11 Sudeste 17 Sudeste 0 -- -- 68
2019-04-08 10:00:00 18.3 7 Oeste 16 Oeste 0 -- -- 61
2019-04-08 09:00:00 14.8 4 Sudoeste 17 Sudoeste 0 -- -- 71
2019-04-08 08:00:00 13.5 5 Oeste 14 Oeste 0 -- -- 76
2019-04-08 07:00:00 13.2 5 Oeste 15 Oeste 0 -- -- 77
2019-04-08 06:00:00 13.3 10 Oeste 15 Noroeste 0 -- -- 78
2019-04-08 05:00:00 14.2 10 Sudoeste 15 Sudoeste 0 -- -- 75
2019-04-08 04:00:00 14 3 Oeste 9 Noroeste 0 -- -- 77
2019-04-08 03:00:00 15 9 Oeste 17 Oeste 0 -- -- 71
2019-04-08 02:00:00 15.1 10 Noroeste 15 Oeste 0 -- -- 70
2019-04-08 01:00:00 15.9 11 Sudoeste 15 Sudoeste 0 -- -- 64
2019-04-08 00:00:00 16.1 8 Oeste 14 Noroeste 0 -- -- 58
2019-04-07 23:00:00 16.1 5 Noroeste 21 Noroeste 0 -- -- 57
2019-04-07 22:00:00 17.2 12 Noroeste 27 Noroeste 0 -- -- 52
2019-04-07 21:00:00 18 13 Noroeste 27 Oeste 0 -- -- 47
2019-04-07 20:00:00 19.1 12 Noroeste 34 Noroeste 0 -- -- 42
2019-04-07 19:00:00 19.6 22 Noroeste 40 Noroeste 0 -- -- 39
2019-04-07 18:00:00 20.3 23 Noroeste 43 Noroeste 0 -- -- 35
2019-04-07 17:00:00 20.6 25 Noroeste 46 Noroeste 0 -- -- 35
2019-04-07 16:00:00 20.1 30 Noroeste 60 Noroeste 0 -- -- 35
2019-04-07 15:00:00 19.3 35 Noroeste 60 Noroeste 0 -- -- 36
2019-04-07 14:00:00 19.3 34 Noroeste 61 Noroeste 0 -- -- 38
2019-04-07 13:00:00 18.3 32 Noroeste 56 Noroeste 0 -- -- 41
2019-04-07 12:00:00 18 30 Noroeste 51 Noroeste 0 -- -- 39
2019-04-07 11:00:00 18.4 23 Oeste 38 Oeste 0 -- -- 40
2019-04-07 10:00:00 17.2 10 Sudoeste 19 Sur 0 -- -- 43
2019-04-07 09:00:00 16.2 8 Sudoeste 12 Sudoeste 0 -- -- 47
2019-04-07 08:00:00 13 4 Sudeste 10 Sudoeste 0 -- -- 61
2019-04-07 07:00:00 12 6 Oeste 14 Oeste 0 -- -- 59
2019-04-07 06:00:00 11.3 5 Oeste 10 Noroeste 0 -- -- 63
2019-04-07 05:00:00 10.9 4 Oeste 19 Sudoeste 0 -- -- 65
2019-04-07 04:00:00 12.6 17 Sudoeste 28 Sudoeste 0 -- -- 59
2019-04-07 03:00:00 11.8 14 Sudoeste 25 Sudoeste 0 -- -- 58
2019-04-07 02:00:00 11.5 15 Sudoeste 29 Sudoeste 0 -- -- 63
2019-04-07 01:00:00 12 16 Sudoeste 21 Sudoeste 0 -- -- 62
2019-04-07 00:00:00 11.9 10 Oeste 33 Oeste 0 -- -- 64
2019-04-06 23:00:00 12.5 20 Noroeste 40 Noroeste 0 -- -- 60
2019-04-06 22:00:00 13.3 10 Oeste 33 Sudoeste 0 -- -- 61
2019-04-06 21:00:00 13.3 22 Sudoeste 33 Sudoeste 0 -- -- 64
2019-04-06 20:00:00 13.7 5 Noroeste 36 Sudoeste 0 -- -- 65
2019-04-06 19:00:00 15.1 18 Oeste 32 Sudoeste 0.4 -- -- 58
2019-04-06 18:00:00 15.9 17 Sur 31 Sur 0 -- -- 65
2019-04-06 17:00:00 16.5 22 Sur 37 Sur 0 -- -- 60
2019-04-06 16:00:00 15.1 32 Sur 41 Sur 0.2 -- -- 64
2019-04-06 15:00:00 13.9 14 Noroeste 25 Noroeste 0.2 -- -- 56
2019-04-06 14:00:00 17.2 20 Sur 45 Sudeste 0 -- -- 47
2019-04-06 13:00:00 16.2 27 Sudeste 36 Sudeste 0 -- -- 58
2019-04-06 12:00:00 17.2 13 Este 19 Este 0 -- -- 47
2019-04-06 11:00:00 19.4 6 Nordeste 13 Sudeste 0 -- -- 42
2019-04-06 10:00:00 16.7 4 Norte 11 Norte 0 -- -- 49
2019-04-06 09:00:00 16.4 0 Calma 9 Sur 0 -- -- 47
2019-04-06 08:00:00 11.5 6 Oeste 17 Sur 0 -- -- 56
2019-04-06 07:00:00 10.6 5 Noroeste 18 Noroeste 0 -- -- 59
2019-04-06 06:00:00 9.8 10 Oeste 30 Sudoeste 0 -- -- 61
2019-04-06 05:00:00 10 3 Oeste 14 Noroeste 0 -- -- 60
2019-04-06 04:00:00 10.4 11 Noroeste 19 Sudoeste 0 -- -- 61
2019-04-06 03:00:00 10.4 12 Noroeste 21 Sudoeste 0 -- -- 58
2019-04-06 02:00:00 10.9 7 Sudoeste 15 Sudoeste 0 -- -- 55
2019-04-06 01:00:00 11.1 12 Sudoeste 18 Sudoeste 0 -- -- 58
2019-04-06 00:00:00 12 7 Sudoeste 17 Sudoeste 0 -- -- 55
2019-04-05 23:00:00 12.2 6 Oeste 22 Sudoeste 0 -- -- 55
2019-04-05 22:00:00 12.4 22 Noroeste 47 Noroeste 0 -- -- 57
2019-04-05 21:00:00 14.1 21 Oeste 35 Sudoeste 0 -- -- 59
2019-04-05 20:00:00 17.4 10 Sudoeste 26 Sudoeste 0 -- -- 57
2019-04-05 19:00:00 14.5 15 Oeste 28 Sudoeste 0 -- -- 66
2019-04-05 18:00:00 14.3 17 Sudoeste 28 Sudoeste 0.6 -- -- 67
2019-04-05 17:00:00 11.9 15 Oeste 46 Sur 0.6 -- -- 77
2019-04-05 16:00:00 17.2 26 Sudoeste 50 Sur 0 -- -- 57
2019-04-05 15:00:00 18 38 Sudoeste 63 Sudoeste 0 -- -- 54
2019-04-05 14:00:00 17 43 Sudoeste 71 Sur 0 -- -- 59
2019-04-05 13:00:00 18.3 34 Sudoeste 45 Sudoeste 0 -- -- 53
2019-04-05 12:00:00 16.8 16 Este 22 Sudeste 0 -- -- 63
2019-04-05 11:00:00 18 5 Sur 12 Oeste 0 -- -- 56
2019-04-05 10:00:00 15.3 5 Sudoeste 19 Oeste 0 -- -- 65
2019-04-05 09:00:00 13.5 15 Sudoeste 23 Sudoeste 0 -- -- 75
2019-04-05 08:00:00 10.6 12 Oeste 20 Oeste 0 -- -- 87
2019-04-05 07:00:00 11.1 14 Oeste 21 Oeste 0 -- -- 85
2019-04-05 06:00:00 11.6 12 Sudoeste 18 Sudoeste 0 -- -- 85
2019-04-05 05:00:00 11.9 9 Oeste 17 Sudoeste 0 -- -- 86
2019-04-05 04:00:00 12.6 10 Oeste 13 Oeste 0 -- -- 86
2019-04-05 03:00:00 12.7 10 Sudoeste 14 Sudoeste 0 -- -- 84
2019-04-05 02:00:00 13.8 6 Sur 13 Sur 0 -- -- 83
2019-04-05 01:00:00 14.3 10 Sur 18 Sudeste 0 -- -- 82
2019-04-05 00:00:00 14.6 15 Sudeste 20 Sudeste 0 -- -- 83
2019-04-04 23:00:00 14.6 13 Sur 21 Sur 0 -- -- 80
2019-04-04 22:00:00 14.6 15 Sudeste 27 Sudeste 0 -- -- 79
2019-04-04 21:00:00 14.8 21 Sudeste 26 Sudeste 0 -- -- 73
2019-04-04 20:00:00 15 24 Sudeste 28 Sudeste 0 -- -- 67
2019-04-04 19:00:00 15.2 23 Sudeste 27 Sudeste 0 -- -- 69
2019-04-04 18:00:00 15.2 23 Sudeste 28 Sudeste 0 -- -- 66
2019-04-04 17:00:00 16 24 Sudeste 28 Sudeste 0 -- -- 64
2019-04-04 16:00:00 16.5 19 Este 25 Este 0 -- -- 66
2019-04-04 15:00:00 16 19 Este 25 Este 0 -- -- 67
2019-04-04 14:00:00 16.4 21 Este 27 Este 0 -- -- 67
2019-04-04 13:00:00 16.5 17 Este 22 Este 0 -- -- 71
2019-04-04 12:00:00 19.2 14 Nordeste 19 Nordeste 0 -- -- 62
2019-04-04 11:00:00 18.4 12 Nordeste 19 Nordeste 0 -- -- 66
2019-04-04 10:00:00 17.5 11 Nordeste 19 Nordeste 0 -- -- 72
2019-04-04 09:00:00 15.3 14 Norte 36 Nordeste 0 -- -- 77
2019-04-04 08:00:00 14 25 Nordeste 35 Nordeste 0 -- -- 85
2019-04-04 07:00:00 14.2 29 Nordeste 41 Nordeste 0 -- -- 87
2019-04-04 06:00:00 14.5 32 Nordeste 41 Nordeste 0 -- -- 87
2019-04-04 05:00:00 14.6 6 Norte 12 Oeste 0 -- -- 61
2019-04-04 04:00:00 15.6 9 Noroeste 13 Noroeste 0 -- -- 55
2019-04-04 03:00:00 15.4 3 Noroeste 10 Noroeste 0 -- -- 64
2019-04-04 02:00:00 14.9 8 Sudoeste 14 Sudoeste 0 -- -- 69
2019-04-04 01:00:00 15.5 9 Sudoeste 14 Sudoeste 0 -- -- 71
2019-04-04 00:00:00 17.1 6 Oeste 13 Oeste 0 -- -- 61
2019-04-03 23:00:00 16.9 10 Noroeste 15 Sudoeste 0 -- -- 70
2019-04-03 22:00:00 18.5 16 Oeste 33 Sudoeste 0 -- -- 65
2019-04-03 21:00:00 19.4 28 Sudoeste 41 Sudoeste 0 -- -- 62
2019-04-03 20:00:00 22.5 22 Sudoeste 33 Oeste 0 -- -- 47
2019-04-03 19:00:00 21.7 14 Sudeste 40 Sudeste 0 -- -- 57
2019-04-03 18:00:00 20.3 39 Sudeste 50 Sudeste 0 -- -- 61
2019-04-03 17:00:00 19.9 37 Sudeste 57 Sur 0 -- -- 63
2019-04-03 16:00:00 17.2 39 Sudeste 47 Sudeste 0 -- -- 84
2019-04-03 15:00:00 17.4 35 Sudeste 42 Sudeste 0 -- -- 83
2019-04-03 14:00:00 16.9 36 Sur 40 Sur 0 -- -- 88
2019-04-03 13:00:00 16.9 24 Sudeste 28 Sudeste 0 -- -- 86
2019-04-03 12:00:00 17.2 17 Sudeste 20 Sudeste 0 -- -- 73
2019-04-03 11:00:00 21.4 2 Este 12 Noroeste 0 -- -- 60
2019-04-03 10:00:00 17.7 6 Noroeste 9 Noroeste 0 -- -- 66
2019-04-03 09:00:00 14.9 5 Noroeste 11 Noroeste 0 -- -- 75
2019-04-03 08:00:00 11.9 3 Oeste 20 Oeste 0 -- -- 85
2019-04-03 07:00:00 12.9 7 Oeste 13 Oeste 0 -- -- 83
2019-04-03 06:00:00 12.9 7 Noroeste 15 Oeste 0 -- -- 83
2019-04-03 05:00:00 13.3 6 Oeste 10 Oeste 0 -- -- 84
2019-04-03 04:00:00 13 4 Noroeste 13 Sudoeste 0 -- -- 87
2019-04-03 03:00:00 13 7 Sudoeste 13 Sudoeste 0 -- -- 92
2019-04-03 02:00:00 14.5 6 Sur 8 Sudoeste 0 -- -- 94
2019-04-03 01:00:00 15.3 5 Sudeste 8 Este 0 -- -- 93
2019-04-03 00:00:00 15 0 Calma 6 Norte 0 -- -- 92
2019-04-02 23:00:00 15.5 4 Norte 13 Nordeste 0 -- -- 91
2019-04-02 22:00:00 15.6 11 Norte 27 Nordeste 0 -- -- 92
2019-04-02 21:00:00 15.8 21 Nordeste 30 Norte 0 -- -- 89
2019-04-02 20:00:00 18 16 Norte 24 Norte 0 -- -- 79
2019-04-02 19:00:00 18.6 19 Sur 40 Sur 0 -- -- 68
2019-04-02 18:00:00 17.2 37 Sur 43 Sur 0 -- -- 84
2019-04-02 17:00:00 16.8 33 Sur 40 Sur 0 -- -- 87
2019-04-02 16:00:00 16.8 28 Sudeste 33 Sudeste 0 -- -- 87
2019-04-02 15:00:00 16.9 26 Sudeste 31 Sur 0 -- -- 87
2019-04-02 14:00:00 16.9 21 Sudeste 24 Sudeste 0 -- -- 84
2019-04-02 13:00:00 16.4 21 Sudeste 24 Sudeste 0 -- -- 86
2019-04-02 12:00:00 17.8 12 Sudeste 14 Sudeste 0 -- -- 75
2019-04-02 11:00:00 21 2 Norte 8 Noroeste 0 -- -- 70
2019-04-02 10:00:00 16 7 Oeste 11 Oeste 0 -- -- 77
2019-04-02 09:00:00 14.4 9 Oeste 23 Oeste 0 -- -- 83
2019-04-02 08:00:00 12.2 17 Oeste 23 Oeste 0 -- -- 89
2019-04-02 07:00:00 12.8 15 Oeste 23 Oeste 0 -- -- 90
2019-04-02 06:00:00 13.6 12 Oeste 19 Sudoeste 0 -- -- 87
2019-04-02 05:00:00 13.9 9 Oeste 12 Oeste 0 -- -- 94
2019-04-02 04:00:00 14.3 10 Oeste 12 Oeste 0 -- -- 97
2019-04-02 03:00:00 14.6 4 Oeste 8 Sudoeste 0 -- -- 96
2019-04-02 02:00:00 14.8 3 Oeste 5 Oeste 0 -- -- 94
2019-04-02 01:00:00 15.1 0 Calma 17 Nordeste 0 -- -- 94
2019-04-02 00:00:00 15.6 15 Nordeste 20 Nordeste 0 -- -- 93
2019-04-01 23:00:00 15.6 6 Nordeste 14 Noroeste 0 -- -- 92
2019-04-01 22:00:00 14.6 9 Oeste 17 Noroeste 0 -- -- 88
2019-04-01 21:00:00 15.2 13 Noroeste 19 Noroeste 0 -- -- 90
2019-04-01 20:00:00 15.9 6 Sur 23 Norte 0 -- -- 80
2019-04-01 19:00:00 16.3 19 Norte 42 Sur 0 -- -- 83
2019-04-01 18:00:00 16.1 29 Sudeste 35 Sudeste 0 -- -- 93
2019-04-01 17:00:00 16.7 31 Sudeste 37 Sudeste 0 -- -- 87
2019-04-01 16:00:00 16.6 24 Sudeste 32 Sudeste 0 -- -- 89
2019-04-01 15:00:00 16.5 23 Sudeste 27 Sudeste 0 -- -- 89
2019-04-01 14:00:00 17 20 Sudeste 23 Sudeste 0 -- -- 87
2019-04-01 13:00:00 17.2 18 Este 20 Este 0 -- -- 81
2019-04-01 12:00:00 19.9 14 Este 16 Nordeste 0 -- -- 73
2019-04-01 11:00:00 20 3 Nordeste 6 Nordeste 0 -- -- 74
2019-04-01 10:00:00 17.7 3 Oeste 15 Sudoeste 0 -- -- 78
2019-04-01 09:00:00 15 8 Sudoeste 12 Oeste 0 -- -- 85
2019-04-01 08:00:00 13.2 5 Noroeste 12 Noroeste 0 -- -- 93
2019-04-01 07:00:00 13.5 8 Noroeste 15 Oeste 0 -- -- 91
2019-04-01 06:00:00 13.8 12 Oeste 17 Oeste 0 -- -- 90
2019-04-01 05:00:00 13.9 12 Oeste 20 Sudoeste 0 -- -- 90
2019-04-01 04:00:00 14.5 15 Sudoeste 21 Sudoeste 0 -- -- 85
2019-04-01 03:00:00 14.3 12 Oeste 18 Sudoeste 0 -- -- 87
2019-04-01 02:00:00 14.4 14 Oeste 18 Oeste 0 -- -- 86
2019-04-01 01:00:00 14.2 12 Oeste 15 Oeste 0 -- -- 89
2019-04-01 00:00:00 14.1 8 Oeste 15 Oeste 0 -- -- 90
2019-03-31 23:00:00 14.1 9 Noroeste 13 Oeste 0 -- -- 91
2019-03-31 22:00:00 13.9 8 Oeste 12 Oeste 0 -- -- 94
2019-03-31 21:00:00 13.7 9 Noroeste 13 Oeste 0 -- -- 96
2019-03-31 20:00:00 13.5 9 Noroeste 14 Noroeste 0.2 -- -- 96
2019-03-31 19:00:00 13.1 8 Noroeste 12 Noroeste 1 -- -- 99
2019-03-31 18:00:00 12.7 10 Noroeste 14 Noroeste 0.8 -- -- 99
2019-03-31 17:00:00 12.9 7 Noroeste 15 Oeste 0.2 -- -- 98
2019-03-31 16:00:00 12.5 10 Noroeste 16 Noroeste 0.2 -- -- 98
2019-03-31 15:00:00 12.3 11 Noroeste 19 Noroeste 0.2 -- -- 99
2019-03-31 14:00:00 12 13 Noroeste 19 Noroeste 0.8 -- -- 99
2019-03-31 13:00:00 11.7 8 Noroeste 21 Noroeste 0.6 -- -- 99
2019-03-31 12:00:00 11.5 10 Noroeste 18 Noroeste 1.2 -- -- 98
2019-03-31 11:00:00 11.2 7 Noroeste 21 Noroeste 0.6 -- -- 98
2019-03-31 10:00:00 11.1 12 Noroeste 24 Noroeste 0.6 -- -- 96
2019-03-31 09:00:00 11 15 Noroeste 24 Noroeste 0.8 -- -- 93
2019-03-31 08:00:00 10.9 17 Noroeste 26 Noroeste 0 -- -- 92
2019-03-31 07:00:00 11 10 Noroeste 22 Noroeste 0.2 -- -- 97
2019-03-31 06:00:00 11.1 16 Noroeste 28 Norte 1.4 -- -- 94
2019-03-31 05:00:00 11.4 13 Noroeste 24 Noroeste 2 -- -- 92
2019-03-31 03:00:00 13.6 16 Noroeste 26 Noroeste 0 -- -- 75
2019-03-31 01:00:00 13.3 12 Norte 22 Norte 0 -- -- 77
2019-03-31 00:00:00 14.5 14 Norte 23 Nordeste 0 -- -- 78
2019-03-30 23:00:00 14.6 16 Nordeste 31 Nordeste 0 -- -- 79
2019-03-30 22:00:00 14.5 20 Nordeste 34 Nordeste 0 -- -- 79
2019-03-30 21:00:00 14.8 28 Nordeste 36 Nordeste 0 -- -- 81
2019-03-30 20:00:00 14.9 24 Nordeste 31 Nordeste 0 -- -- 79
2019-03-30 19:00:00 15.3 19 Nordeste 29 Nordeste 0 -- -- 77
2019-03-30 18:00:00 17.1 21 Nordeste 35 Nordeste 0 -- -- 69
2019-03-30 17:00:00 16.8 30 Nordeste 42 Este 0 -- -- 71
2019-03-30 16:00:00 16.6 35 Este 42 Este 0 -- -- 72
2019-03-30 15:00:00 16.6 36 Este 41 Este 0 -- -- 71
2019-03-30 14:00:00 16.4 34 Nordeste 41 Nordeste 0 -- -- 72
2019-03-30 13:00:00 17 30 Nordeste 37 Nordeste 0 -- -- 69
2019-03-30 12:00:00 17.6 24 Nordeste 32 Nordeste 0 -- -- 64
2019-03-30 11:00:00 17.9 18 Nordeste 25 Nordeste 0 -- -- 63
2019-03-30 10:00:00 16.3 11 Norte 23 Noroeste 0 -- -- 62
2019-03-30 09:00:00 12.9 13 Noroeste 19 Noroeste 0 -- -- 65
2019-03-30 08:00:00 11 13 Noroeste 19 Noroeste 0 -- -- 70
2019-03-30 07:00:00 9.7 11 Noroeste 18 Noroeste 0 -- -- 76
2019-03-30 06:00:00 9.6 14 Noroeste 19 Noroeste 0 -- -- 75
2019-03-30 05:00:00 10.6 13 Noroeste 19 Noroeste 0 -- -- 74
2019-03-30 04:00:00 11.1 11 Noroeste 23 Noroeste 0 -- -- 75
2019-03-30 03:00:00 11 13 Noroeste 22 Noroeste 0 -- -- 75
2019-03-30 02:00:00 10.5 12 Noroeste 18 Noroeste 0 -- -- 76
2019-03-30 01:00:00 10.7 12 Noroeste 18 Noroeste 0 -- -- 75
2019-03-30 00:00:00 11.9 14 Noroeste 20 Noroeste 0 -- -- 69
2019-03-29 23:00:00 12.9 13 Noroeste 29 Nordeste 0 -- -- 69
2019-03-29 22:00:00 14.1 21 Nordeste 33 Nordeste 0 -- -- 75
2019-03-29 21:00:00 14.4 27 Nordeste 37 Nordeste 0 -- -- 74
2019-03-29 20:00:00 14.7 27 Nordeste 41 Nordeste 0 -- -- 75
2019-03-29 19:00:00 15.1 34 Nordeste 46 Nordeste 0 -- -- 76
2019-03-29 18:00:00 16.7 35 Nordeste 44 Nordeste 0 -- -- 70
2019-03-29 17:00:00 17.5 35 Nordeste 44 Nordeste 0 -- -- 63
2019-03-29 16:00:00 17.3 34 Nordeste 44 Nordeste 0 -- -- 65
2019-03-29 15:00:00 16.5 36 Nordeste 43 Nordeste 0 -- -- 67
2019-03-29 14:00:00 17.3 32 Nordeste 38 Nordeste 0 -- -- 64
2019-03-29 13:00:00 17.3 31 Nordeste 39 Nordeste 0 -- -- 65
2019-03-29 12:00:00 17.4 25 Nordeste 34 Nordeste 0 -- -- 64
2019-03-29 11:00:00 16.9 24 Nordeste 34 Nordeste 0 -- -- 67
2019-03-29 10:00:00 16.3 22 Nordeste 30 Nordeste 0 -- -- 69
2019-03-29 09:00:00 14.4 13 Norte 23 Norte 0 -- -- 64
2019-03-29 08:00:00 11 12 Noroeste 21 Noroeste 0 -- -- 69
2019-03-29 07:00:00 9 18 Noroeste 24 Noroeste 0 -- -- 79
2019-03-29 06:00:00 9.4 14 Noroeste 20 Noroeste 0 -- -- 79
2019-03-29 05:00:00 9.6 12 Noroeste 20 Oeste 0 -- -- 77
2019-03-29 04:00:00 9 12 Noroeste 21 Noroeste 0 -- -- 81
2019-03-29 03:00:00 9.3 14 Noroeste 21 Noroeste 0 -- -- 84
2019-03-29 02:00:00 9.8 13 Noroeste 21 Noroeste 0 -- -- 82
2019-03-29 01:00:00 10.6 10 Noroeste 15 Noroeste 0 -- -- 80
2019-03-29 00:00:00 11.2 12 Noroeste 17 Noroeste 0 -- -- 78
2019-03-28 23:00:00 11.9 10 Noroeste 28 Nordeste 0 -- -- 76
2019-03-28 22:00:00 14.2 20 Nordeste 28 Nordeste 0 -- -- 77
2019-03-28 21:00:00 14.2 20 Nordeste 29 Nordeste 0 -- -- 76
2019-03-28 20:00:00 14.3 24 Nordeste 32 Nordeste 0 -- -- 72
2019-03-28 19:00:00 16.3 24 Este 31 Este 0 -- -- 66
2019-03-28 18:00:00 17.8 24 Nordeste 33 Este 0 -- -- 60
2019-03-28 17:00:00 17.6 26 Nordeste 32 Este 0 -- -- 59
2019-03-28 16:00:00 17.2 27 Nordeste 36 Este 0 -- -- 65
2019-03-28 15:00:00 16.7 26 Este 33 Este 0 -- -- 69
2019-03-28 14:00:00 16.7 23 Este 28 Este 0 -- -- 62
2019-03-28 13:00:00 15.9 20 Este 23 Este 0 -- -- 55
2019-03-28 12:00:00 18.5 13 Este 18 Nordeste 0 -- -- 46
2019-03-28 11:00:00 19 7 Nordeste 13 Noroeste 0 -- -- 40
2019-03-28 10:00:00 16.1 10 Noroeste 16 Noroeste 0 -- -- 37
2019-03-28 09:00:00 13 12 Noroeste 18 Noroeste 0 -- -- 48
2019-03-28 08:00:00 9.7 14 Noroeste 18 Oeste 0 -- -- 59
2019-03-28 07:00:00 8 12 Oeste 18 Oeste 0 -- -- 64
2019-03-28 06:00:00 8.3 15 Noroeste 21 Noroeste 0 -- -- 66
2019-03-28 05:00:00 9.1 15 Noroeste 19 Noroeste 0 -- -- 66
2019-03-28 04:00:00 9.2 14 Noroeste 23 Noroeste 0 -- -- 70
2019-03-28 03:00:00 9.4 14 Noroeste 24 Noroeste 0 -- -- 73
2019-03-28 02:00:00 10 13 Noroeste 20 Noroeste 0 -- -- 71
2019-03-28 01:00:00 10 12 Noroeste 20 Noroeste 0 -- -- 72
2019-03-28 00:00:00 11.5 14 Noroeste 19 Noroeste 0 -- -- 66
2019-03-27 23:00:00 12.8 13 Noroeste 28 Nordeste 0 -- -- 64
2019-03-27 22:00:00 14 19 Nordeste 34 Nordeste 0 -- -- 70
2019-03-27 21:00:00 14.1 26 Nordeste 40 Nordeste 0 -- -- 69
2019-03-27 20:00:00 14.4 36 Nordeste 45 Nordeste 0 -- -- 72
2019-03-27 19:00:00 15.7 34 Nordeste 45 Nordeste 0 -- -- 69
2019-03-27 18:00:00 17.3 35 Nordeste 42 Nordeste 0 -- -- 63
2019-03-27 17:00:00 17.4 34 Nordeste 42 Nordeste 0 -- -- 63
2019-03-27 16:00:00 16.8 33 Nordeste 45 Este 0 -- -- 63
2019-03-27 15:00:00 16.8 33 Nordeste 42 Nordeste 0 -- -- 64
2019-03-27 14:00:00 16.7 37 Nordeste 45 Nordeste 0 -- -- 62
2019-03-27 13:00:00 17.4 30 Nordeste 41 Nordeste 0 -- -- 57
2019-03-27 12:00:00 17.4 27 Nordeste 40 Nordeste 0 -- -- 56
2019-03-27 11:00:00 16.9 28 Nordeste 43 Nordeste 0 -- -- 57
2019-03-27 10:00:00 16.8 23 Norte 35 Norte 0 -- -- 61
2019-03-27 09:00:00 14.6 18 Norte 30 Norte 0 -- -- 55
2019-03-27 08:00:00 12.4 12 Noroeste 30 Norte 0 -- -- 62
2019-03-27 07:00:00 10.1 16 Noroeste 30 Noroeste 0 -- -- 69
2019-03-27 06:00:00 9.9 12 Noroeste 26 Noroeste 0 -- -- 73
2019-03-27 05:00:00 10.6 17 Norte 27 Norte 0 -- -- 74
2019-03-27 04:00:00 11 14 Norte 24 Norte 0 -- -- 75
2019-03-27 03:00:00 11.1 14 Norte 24 Noroeste 0 -- -- 74
2019-03-27 02:00:00 11.8 17 Norte 27 Noroeste 0 -- -- 69
2019-03-27 01:00:00 13.1 17 Norte 35 Norte 0 -- -- 71
2019-03-27 00:00:00 13.5 23 Norte 40 Nordeste 0 -- -- 72
2019-03-26 23:00:00 13.8 29 Nordeste 44 Nordeste 0 -- -- 71
2019-03-26 22:00:00 14.2 27 Nordeste 45 Nordeste 0 -- -- 69
2019-03-26 21:00:00 14.3 35 Nordeste 48 Nordeste 0 -- -- 69
2019-03-26 20:00:00 14.8 31 Nordeste 49 Nordeste 0 -- -- 70
2019-03-26 19:00:00 15 35 Nordeste 48 Nordeste 0 -- -- 70
2019-03-26 18:00:00 15.8 37 Nordeste 48 Nordeste 0 -- -- 75
2019-03-26 17:00:00 16.5 36 Nordeste 50 Nordeste 0 -- -- 76
2019-03-26 16:00:00 17.8 35 Nordeste 52 Nordeste 0 -- -- 75
2019-03-26 15:00:00 17.8 35 Nordeste 46 Nordeste 0 -- -- 72
2019-03-26 14:00:00 18.2 32 Nordeste 44 Nordeste 0 -- -- 71
2019-03-26 13:00:00 17.9 31 Nordeste 43 Nordeste 0 -- -- 72
2019-03-26 12:00:00 17.4 27 Nordeste 46 Nordeste 0 -- -- 73
2019-03-26 11:00:00 16.6 34 Nordeste 48 Nordeste 0 -- -- 71
2019-03-26 10:00:00 18.2 17 Nordeste 31 Nordeste 0 -- -- 55
2019-03-26 09:00:00 16.3 9 Noroeste 18 Noroeste 0 -- -- 49
2019-03-26 08:00:00 12.8 11 Noroeste 20 Noroeste 0 -- -- 59
2019-03-26 07:00:00 10.7 10 Noroeste 17 Noroeste 0 -- -- 66
2019-03-26 06:00:00 10.5 13 Noroeste 21 Noroeste 0 -- -- 69
2019-03-26 05:00:00 10.7 12 Noroeste 21 Noroeste 0 -- -- 68
2019-03-26 04:00:00 11.4 15 Noroeste 20 Noroeste 0 -- -- 68
2019-03-26 03:00:00 12 12 Noroeste 19 Oeste 0 -- -- 67
2019-03-26 02:00:00 12.2 10 Noroeste 15 Noroeste 0 -- -- 67
2019-03-26 01:00:00 12.8 12 Noroeste 20 Oeste 0 -- -- 65
2019-03-26 00:00:00 12.7 13 Noroeste 17 Noroeste 0 -- -- 63
2019-03-25 23:00:00 13.6 12 Oeste 15 Oeste 0 -- -- 62
2019-03-25 22:00:00 13.9 9 Noroeste 13 Noroeste 0 -- -- 70
2019-03-25 21:00:00 15 5 Noroeste 10 Norte 0 -- -- 71
2019-03-25 20:00:00 15.5 8 Norte 13 Nordeste 0 -- -- 75
2019-03-25 19:00:00 17.6 8 Norte 16 Nordeste 0 -- -- 70
2019-03-25 18:00:00 20.2 11 Nordeste 18 Nordeste 0 -- -- 60
2019-03-25 17:00:00 21.2 3 Nordeste 31 Este 0 -- -- 60
2019-03-25 16:00:00 17.7 22 Este 28 Este 0 -- -- 72
2019-03-25 15:00:00 17.3 24 Este 32 Este 0 -- -- 73
2019-03-25 14:00:00 17.9 26 Este 29 Este 0 -- -- 67
2019-03-25 13:00:00 17.9 19 Este 24 Este 0 -- -- 65
2019-03-25 12:00:00 21.5 10 Nordeste 18 Nordeste 0 -- -- 52
2019-03-25 11:00:00 22 11 Nordeste 15 Nordeste 0 -- -- 46
2019-03-25 10:00:00 19.8 8 Norte 16 Noroeste 0 -- -- 42
2019-03-25 09:00:00 17.2 9 Noroeste 22 Noroeste 0 -- -- 52
2019-03-25 08:00:00 14.2 13 Noroeste 19 Oeste 0 -- -- 58
2019-03-25 07:00:00 11.9 11 Noroeste 15 Noroeste 0 -- -- 68
2019-03-25 06:00:00 11.9 10 Noroeste 15 Noroeste 0 -- -- 70
2019-03-25 05:00:00 13 8 Noroeste 17 Noroeste 0 -- -- 69
2019-03-25 04:00:00 13.9 11 Noroeste 17 Noroeste 0 -- -- 66
2019-03-25 03:00:00 14.1 10 Noroeste 14 Noroeste 0 -- -- 67
2019-03-25 02:00:00 13.1 11 Noroeste 15 Noroeste 0 -- -- 72
2019-03-25 01:00:00 13.4 9 Noroeste 13 Noroeste 0 -- -- 74
2019-03-25 00:00:00 13.8 2 Noroeste 8 Oeste 0 -- -- 79
2019-03-24 23:00:00 14.6 6 Oeste 12 Oeste 0 -- -- 78
2019-03-24 22:00:00 14.3 7 Oeste 11 Oeste 0 -- -- 81
2019-03-24 21:00:00 15 3 Noroeste 4 Noroeste 0 -- -- 81
2019-03-24 20:00:00 15.2 0 Calma 11 Norte 0 -- -- 79
2019-03-24 19:00:00 15.9 5 Norte 10 Nordeste 0 -- -- 78
2019-03-24 18:00:00 16.8 5 Norte 13 Nordeste 0 -- -- 73
2019-03-24 17:00:00 17.3 6 Norte 21 Nordeste 0 -- -- 73
2019-03-24 16:00:00 17.5 18 Nordeste 29 Este 0 -- -- 75
2019-03-24 15:00:00 16.9 22 Este 26 Este 0 -- -- 75
2019-03-24 14:00:00 17.5 15 Este 19 Nordeste 0 -- -- 72
2019-03-24 13:00:00 20.6 12 Nordeste 15 Nordeste 0 -- -- 61
2019-03-24 12:00:00 17.6 11 Nordeste 21 Norte 0 -- -- 66
2019-03-24 11:00:00 18.3 13 Norte 23 Noroeste 0 -- -- 56
2019-03-24 10:00:00 15.3 14 Norte 27 Norte 0 -- -- 64
2019-03-24 09:00:00 14.1 16 Norte 24 Noroeste 0 -- -- 69
2019-03-24 08:00:00 11.4 11 Noroeste 19 Noroeste 0 -- -- 81
2019-03-24 07:00:00 10.9 11 Noroeste 19 Noroeste 0 -- -- 85
2019-03-24 06:00:00 11.3 11 Noroeste 19 Noroeste 0 -- -- 85
2019-03-24 05:00:00 11.8 10 Noroeste 22 Norte 0 -- -- 86
2019-03-24 04:00:00 12.2 15 Noroeste 28 Norte 0 -- -- 85
2019-03-24 03:00:00 11.9 10 Noroeste 21 Noroeste 0 -- -- 89
2019-03-24 02:00:00 11.9 11 Noroeste 18 Noroeste 0 -- -- 88
2019-03-24 01:00:00 11.3 11 Noroeste 16 Noroeste 0 -- -- 91
2019-03-24 00:00:00 11.5 6 Noroeste 13 Noroeste 0 -- -- 88
2019-03-23 23:00:00 12.3 8 Noroeste 13 Noroeste 0 -- -- 86
2019-03-23 22:00:00 13 6 Noroeste 18 Norte 0 -- -- 85
2019-03-23 21:00:00 14.8 13 Norte 22 Nordeste 0 -- -- 86
2019-03-23 20:00:00 13.9 6 Noroeste 12 Noroeste 0 -- -- 79
2019-03-23 19:00:00 14.1 8 Norte 17 Noroeste 0 -- -- 78
2019-03-23 18:00:00 14 10 Noroeste 18 Norte 0 -- -- 79
2019-03-23 17:00:00 13.9 8 Noroeste 17 Noroeste 0 -- -- 84
2019-03-23 16:00:00 12.7 10 Noroeste 23 Noroeste 0 -- -- 88
2019-03-23 15:00:00 12.9 13 Norte 23 Norte 0 -- -- 80
2019-03-23 14:00:00 13.6 11 Norte 25 Nordeste 0 -- -- 80
2019-03-23 13:00:00 14.4 15 Norte 35 Nordeste 0 -- -- 78
2019-03-23 12:00:00 15.4 30 Nordeste 40 Nordeste 0 -- -- 76
2019-03-23 11:00:00 17 22 Nordeste 33 Nordeste 0 -- -- 71
2019-03-23 10:00:00 14.1 9 Noroeste 14 Noroeste 0.2 -- -- 69
2019-03-23 09:00:00 12.6 8 Noroeste 16 Oeste 0 -- -- 70
2019-03-23 08:00:00 12.9 8 Oeste 17 Nordeste 0 -- -- 68
2019-03-23 07:00:00 12.5 6 Noroeste 13 Noroeste 0 -- -- 71
2019-03-23 06:00:00 12.4 6 Oeste 10 Noroeste 0 -- -- 70
2019-03-23 05:00:00 12.9 5 Oeste 13 Noroeste 0 -- -- 67
2019-03-23 04:00:00 13.2 5 Noroeste 11 Noroeste 0 -- -- 68
2019-03-23 03:00:00 13 8 Noroeste 15 Oeste 0 -- -- 68
2019-03-23 02:00:00 13.3 13 Oeste 19 Oeste 0 -- -- 67
2019-03-23 01:00:00 12.6 14 Oeste 20 Oeste 0 -- -- 73
2019-03-23 00:00:00 13.4 11 Oeste 15 Oeste 0 -- -- 70
2019-03-22 23:00:00 13.4 9 Oeste 12 Oeste 0 -- -- 70
2019-03-22 22:00:00 13.9 9 Noroeste 13 Oeste 0 -- -- 72
2019-03-22 21:00:00 14.3 4 Noroeste 6 Noroeste 0 -- -- 72
2019-03-22 20:00:00 14.6 4 Nordeste 13 Este 0 -- -- 72
2019-03-22 19:00:00 15.7 8 Este 20 Este 0 -- -- 67
2019-03-22 18:00:00 17.8 15 Nordeste 22 Este 0 -- -- 62
2019-03-22 17:00:00 17 20 Este 26 Este 0 -- -- 65
2019-03-22 16:00:00 15.7 23 Este 36 Este 0 -- -- 67
2019-03-22 15:00:00 15.5 24 Este 29 Este 0 -- -- 65
2019-03-22 14:00:00 16.7 24 Este 29 Este 0 -- -- 61
2019-03-22 13:00:00 17.6 18 Nordeste 26 Nordeste 0 -- -- 56
2019-03-22 12:00:00 17.9 21 Nordeste 27 Nordeste 0 -- -- 51
2019-03-22 11:00:00 17.3 15 Nordeste 22 Norte 0 -- -- 52
2019-03-22 10:00:00 14.8 10 Noroeste 17 Oeste 0 -- -- 48
2019-03-22 09:00:00 10.5 11 Noroeste 16 Noroeste 0 -- -- 60
2019-03-22 08:00:00 8.8 10 Oeste 18 Oeste 0 -- -- 67
2019-03-22 07:00:00 8.7 12 Oeste 22 Noroeste 0 -- -- 68
2019-03-22 06:00:00 9.3 15 Noroeste 21 Noroeste 0 -- -- 65
2019-03-22 05:00:00 8.6 12 Noroeste 18 Oeste 0 -- -- 72
2019-03-22 04:00:00 8.5 13 Noroeste 18 Oeste 0 -- -- 78
2019-03-22 03:00:00 9.2 8 Noroeste 15 Noroeste 0 -- -- 77
2019-03-22 02:00:00 9.9 8 Noroeste 14 Noroeste 0 -- -- 75
2019-03-22 01:00:00 10.5 7 Noroeste 14 Norte 0 -- -- 73
2019-03-22 00:00:00 12 9 Norte 16 Norte 0 -- -- 66
2019-03-21 23:00:00 13 9 Norte 31 Nordeste 0 -- -- 63
2019-03-21 22:00:00 14 21 Nordeste 40 Nordeste 0 -- -- 70
2019-03-21 21:00:00 14.2 29 Nordeste 45 Nordeste 0 -- -- 70
2019-03-21 20:00:00 14.2 36 Nordeste 45 Nordeste 0 -- -- 70
2019-03-21 19:00:00 14.9 38 Nordeste 47 Nordeste 0 -- -- 68
2019-03-21 18:00:00 16.7 34 Nordeste 41 Nordeste 0 -- -- 56
2019-03-21 17:00:00 16.9 31 Nordeste 39 Este 0 -- -- 58
2019-03-21 16:00:00 16.3 30 Nordeste 42 Nordeste 0 -- -- 58
2019-03-21 15:00:00 16.4 28 Nordeste 37 Nordeste 0 -- -- 58
2019-03-21 14:00:00 16.4 29 Nordeste 41 Nordeste 0 -- -- 55
2019-03-21 13:00:00 16.8 27 Nordeste 39 Nordeste 0 -- -- 55
2019-03-21 12:00:00 15.7 26 Nordeste 33 Nordeste 0 -- -- 55
2019-03-21 11:00:00 16.2 14 Norte 31 Norte 0 -- -- 49
2019-03-21 10:00:00 14.8 18 Norte 30 Norte 0 -- -- 49
2019-03-21 09:00:00 11.6 11 Noroeste 23 Oeste 0 -- -- 61
2019-03-21 08:00:00 8 15 Noroeste 27 Noroeste 0 -- -- 72
2019-03-21 07:00:00 9.2 17 Noroeste 26 Noroeste 0 -- -- 71
2019-03-21 06:00:00 7.7 14 Noroeste 20 Noroeste 0 -- -- 76
2019-03-21 05:00:00 8.6 12 Noroeste 18 Noroeste 0 -- -- 75
2019-03-21 04:00:00 9.2 10 Noroeste 23 Noroeste 0 -- -- 73
2019-03-21 03:00:00 10 19 Noroeste 25 Noroeste 0 -- -- 71
2019-03-21 02:00:00 9.1 13 Noroeste 21 Noroeste 0 -- -- 75
2019-03-21 01:00:00 9.4 12 Noroeste 17 Noroeste 0 -- -- 74
2019-03-21 00:00:00 10.5 9 Noroeste 16 Norte 0 -- -- 71
2019-03-20 23:00:00 11.6 8 Norte 19 Nordeste 0 -- -- 69
2019-03-20 22:00:00 13.1 14 Norte 27 Nordeste 0 -- -- 64
2019-03-20 21:00:00 13.3 17 Nordeste 34 Nordeste 0 -- -- 67
2019-03-20 20:00:00 13.5 30 Nordeste 43 Nordeste 0 -- -- 70
2019-03-20 19:00:00 13.7 25 Nordeste 44 Nordeste 0 -- -- 67
2019-03-20 18:00:00 14 38 Este 45 Este 0 -- -- 71
2019-03-20 17:00:00 14.9 28 Nordeste 37 Nordeste 0 -- -- 66
2019-03-20 16:00:00 15.1 24 Nordeste 32 Nordeste 0 -- -- 64
2019-03-20 15:00:00 15.5 23 Nordeste 36 Nordeste 0 -- -- 63
2019-03-20 14:00:00 15.3 25 Nordeste 35 Nordeste 0 -- -- 66
2019-03-20 13:00:00 14.7 29 Nordeste 36 Nordeste 0 -- -- 66
2019-03-20 12:00:00 17.4 22 Nordeste 29 Nordeste 0 -- -- 54
2019-03-20 11:00:00 16.3 17 Nordeste 23 Nordeste 0 -- -- 59
2019-03-20 10:00:00 13.8 8 Norte 15 Norte 0 -- -- 64
2019-03-20 09:00:00 11.1 12 Noroeste 19 Noroeste 0 -- -- 76
2019-03-20 08:00:00 9.8 11 Noroeste 17 Noroeste 0 -- -- 79
2019-03-20 07:00:00 9.9 10 Noroeste 20 Noroeste 0 -- -- 79
2019-03-20 06:00:00 10.2 8 Noroeste 13 Noroeste 0 -- -- 79
2019-03-20 05:00:00 10.9 7 Noroeste 11 Noroeste 0 -- -- 76
2019-03-20 04:00:00 11.3 9 Noroeste 13 Noroeste 0 -- -- 75
2019-03-20 03:00:00 11.9 8 Norte 15 Norte 0 -- -- 74
2019-03-20 02:00:00 12.2 6 Norte 12 Norte 0 -- -- 73
2019-03-20 01:00:00 12.2 5 Noroeste 12 Noroeste 0 -- -- 71
2019-03-20 00:00:00 12.7 6 Norte 13 Norte 0 -- -- 71
2019-03-19 23:00:00 13.2 8 Norte 19 Nordeste 0 -- -- 72
2019-03-19 22:00:00 13.4 14 Nordeste 24 Nordeste 0 -- -- 74
2019-03-19 21:00:00 13.9 19 Este 26 Nordeste 0 -- -- 72
2019-03-19 20:00:00 13.9 18 Nordeste 26 Nordeste 0 -- -- 70
2019-03-19 19:00:00 14.1 18 Este 27 Este 0 -- -- 74
2019-03-19 18:00:00 14.4 22 Este 27 Este 0 -- -- 74
2019-03-19 17:00:00 15.3 18 Este 26 Este 0 -- -- 74
2019-03-19 16:00:00 14.4 24 Este 30 Este 0 -- -- 77
2019-03-19 15:00:00 15.6 24 Sudeste 30 Este 0 -- -- 76
2019-03-19 14:00:00 16.6 18 Este 21 Este 0 -- -- 71
2019-03-19 13:00:00 17.4 8 Este 12 Nordeste 0 -- -- 71
2019-03-19 12:00:00 16.9 6 Este 11 Nordeste 0 -- -- 73
2019-03-19 11:00:00 16.6 3 Nordeste 8 Norte 0 -- -- 73
2019-03-19 10:00:00 16.6 2 Noroeste 10 Norte 0 -- -- 76
2019-03-19 09:00:00 14.1 2 Noroeste 8 Oeste 0 -- -- 82
2019-03-19 08:00:00 14 6 Sudoeste 10 Oeste 0 -- -- 84
2019-03-19 07:00:00 13 6 Oeste 9 Oeste 0 -- -- 85
2019-03-19 06:00:00 13.4 4 Oeste 11 Oeste 0 -- -- 84
2019-03-19 05:00:00 13.4 8 Oeste 11 Oeste 0 -- -- 84
2019-03-19 04:00:00 13.4 8 Oeste 10 Oeste 0 -- -- 84
2019-03-19 03:00:00 13.3 5 Noroeste 10 Noroeste 0 -- -- 86
2019-03-19 02:00:00 13.2 6 Noroeste 18 Nordeste 0 -- -- 86
2019-03-19 01:00:00 13.7 12 Nordeste 21 Nordeste 0 -- -- 82
2019-03-19 00:00:00 14.5 13 Nordeste 20 Este 0 -- -- 80